Time;durP1;ratioP1;P1;durP2;ratioP2;P2;SDS_P1;SDS_P2;PMS_P1;PMS_P2;Temp;Humidity;BMP_temperature;BMP_pressure;BME280_temperature;BME280_humidity;BME280_pressure;Samples;Min_cycle;Max_cycle;Signal;HPM_P1;HPM_P2
2024/01/17 00:00:58;;;;;;;;;53.67;39.33;;;;;0.90;62.38;99625.50;4974850;28;46119;-64
2024/01/17 00:03:24;;;;;;;;;54.33;42.00;;;;;0.94;62.07;99632.47;4976800;28;45438;-63
2024/01/17 00:05:50;;;;;;;;;45.00;37.33;;;;;0.90;62.18;99622.94;4974354;28;45825;-62
2024/01/17 00:08:16;;;;;;;;;57.00;37.00;;;;;0.95;62.43;99626.47;4977399;28;45477;-63
2024/01/17 00:10:45;;;;;;;;;52.00;38.67;;;;;0.93;62.63;99626.47;4975717;28;45324;-64
2024/01/17 00:13:11;;;;;;;;;48.00;40.00;;;;;0.91;62.79;99615.25;4977652;28;45435;-62
2024/01/17 00:15:37;;;;;;;;;52.67;39.00;;;;;0.58;63.82;99564.66;4975957;28;45341;-64
2024/01/17 00:18:03;;;;;;;;;51.00;38.33;;;;;0.88;63.09;99614.28;4975972;28;45392;-64
2024/01/17 00:20:29;;;;;;;;;52.33;40.33;;;;;0.87;63.89;99603.09;4974426;28;47268;-63
2024/01/17 00:22:54;;;;;;;;;53.00;40.33;;;;;0.87;63.23;99589.34;4976490;28;45469;-64
2024/01/17 00:25:20;;;;;;;;;52.67;42.00;;;;;0.97;62.89;99594.75;4976066;28;45514;-64
2024/01/17 00:27:49;;;;;;;;;56.00;37.33;;;;;1.03;63.17;99591.44;4976863;28;45435;-64
2024/01/17 00:30:14;;;;;;;;;47.00;39.00;;;;;1.06;62.96;99576.88;4975208;28;45761;-63
2024/01/17 00:32:40;;;;;;;;;48.33;37.00;;;;;0.89;64.03;99543.84;4976644;28;45972;-67
2024/01/17 00:35:08;;;;;;;;;54.67;41.33;;;;;1.06;63.82;99556.25;4977566;28;45642;-63
2024/01/17 00:37:34;;;;;;;;;52.00;39.33;;;;;1.08;63.93;99564.03;4976272;28;45450;-64
2024/01/17 00:39:59;;;;;;;;;46.00;38.67;;;;;1.05;64.04;99548.50;4970747;28;45479;-62
2024/01/17 00:42:26;;;;;;;;;50.00;39.67;;;;;0.91;63.37;99513.84;4979167;28;45553;-63
2024/01/17 00:44:53;;;;;;;;;55.00;43.00;;;;;1.15;64.43;99541.84;4976890;28;45360;-64
2024/01/17 00:47:19;;;;;;;;;48.00;36.67;;;;;1.10;64.77;99535.72;4978754;28;45515;-62
2024/01/17 00:49:44;;;;;;;;;49.00;35.00;;;;;1.15;64.75;99545.28;4978509;28;45436;-62
2024/01/17 00:52:10;;;;;;;;;54.00;40.33;;;;;1.11;65.20;99520.25;4978977;28;45308;-63
2024/01/17 00:54:35;;;;;;;;;52.33;39.00;;;;;1.16;64.98;99508.31;4978358;28;45384;-63
2024/01/17 00:57:01;;;;;;;;;45.33;36.33;;;;;1.29;64.28;99519.78;4978665;28;45433;-63
2024/01/17 00:59:27;;;;;;;;;54.33;43.00;;;;;1.37;64.46;99525.06;4976425;28;47553;-63
2024/01/17 01:01:52;;;;;;;;;56.67;42.33;;;;;1.32;65.66;99516.38;4978027;28;45457;-64
2024/01/17 01:04:18;;;;;;;;;52.00;41.33;;;;;1.29;66.47;99501.72;4978521;28;46170;-65
2024/01/17 01:06:43;;;;;;;;;48.33;37.67;;;;;1.28;66.13;99489.63;4978671;28;45439;-63
2024/01/17 01:09:09;;;;;;;;;52.00;40.00;;;;;1.30;66.44;99493.13;4977855;28;45494;-63
2024/01/17 01:11:36;;;;;;;;;49.00;38.33;;;;;1.27;65.32;99477.59;4977306;28;45304;-62
2024/01/17 01:14:03;;;;;;;;;53.67;41.00;;;;;1.32;66.04;99473.38;4973678;28;45479;-64
2024/01/17 01:16:28;;;;;;;;;43.00;35.33;;;;;1.20;66.03;99457.69;4977383;28;45445;-63
2024/01/17 01:18:54;;;;;;;;;55.33;43.00;;;;;1.37;67.15;99476.06;4974854;28;47860;-63
2024/01/17 01:21:19;;;;;;;;;56.33;41.00;;;;;1.36;67.40;99466.59;4976229;28;45566;-63
2024/01/17 01:23:48;;;;;;;;;51.33;39.33;;;;;1.33;67.03;99454.50;4977802;28;45397;-64
2024/01/17 01:26:14;;;;;;;;;55.67;42.00;;;;;1.31;67.55;99452.75;4976022;28;45600;-65
2024/01/17 01:28:40;;;;;;;;;51.33;39.00;;;;;1.21;67.51;99420.72;4976526;28;46164;-65
2024/01/17 01:31:09;;;;;;;;;54.00;42.33;;;;;1.29;67.63;99426.91;4976897;28;45560;-64
2024/01/17 01:33:35;;;;;;;;;54.33;41.33;;;;;1.22;68.09;99415.59;4976799;28;46163;-64
2024/01/17 01:36:00;;;;;;;;;58.33;42.00;;;;;1.24;67.90;99406.19;4976353;28;45450;-63
2024/01/17 01:38:26;;;;;;;;;54.00;38.67;;;;;1.31;68.89;99401.16;4977100;28;45414;-63
2024/01/17 01:40:51;;;;;;;;;56.33;43.00;;;;;1.28;68.01;99401.94;4976979;28;45339;-64
2024/01/17 01:43:21;;;;;;;;;54.33;42.00;;;;;1.12;68.85;99399.94;4975166;28;45351;-64
2024/01/17 01:46:15;;;;;;;;;50.33;41.00;;;;;0.98;69.47;99392.81;4977496;28;46616;-65
2024/01/17 01:48:42;;;;;;;;;52.33;40.00;;;;;0.87;70.11;99360.78;4977976;28;46377;-66
2024/01/17 01:51:10;;;;;;;;;54.33;40.33;;;;;1.13;70.04;99383.63;4976067;28;45641;-67
2024/01/17 01:53:38;;;;;;;;;55.67;42.67;;;;;1.09;69.67;99372.38;4973852;28;45631;-63
2024/01/17 01:56:04;;;;;;;;;54.00;36.33;;;;;0.81;70.34;99337.50;4974865;28;45459;-65
2024/01/17 01:58:31;;;;;;;;;58.00;40.00;;;;;0.82;71.06;99362.41;4962645;28;48246;-66
2024/01/17 02:00:57;;;;;;;;;55.67;41.33;;;;;0.80;71.12;99354.66;4977078;28;45410;-65
2024/01/17 02:03:25;;;;;;;;;53.00;42.67;;;;;0.78;72.44;99350.31;4976709;28;45543;-64
2024/01/17 02:05:51;;;;;;;;;64.00;46.33;;;;;0.82;72.77;99350.41;4977371;28;45840;-64
2024/01/17 02:08:17;;;;;;;;;54.00;42.00;;;;;0.90;73.17;99349.66;4974065;28;45596;-63
2024/01/17 02:10:43;;;;;;;;;55.67;44.33;;;;;0.84;72.05;99320.38;4976648;28;45542;-64
2024/01/17 02:13:09;;;;;;;;;57.00;42.00;;;;;1.01;72.87;99319.81;4976267;28;45527;-64
2024/01/17 02:15:34;;;;;;;;;55.00;44.00;;;;;0.89;72.78;99301.53;4976230;28;45486;-63
2024/01/17 02:18:00;;;;;;;;;54.67;39.33;;;;;1.05;73.47;99308.72;4977502;28;46566;-63
2024/01/17 02:20:27;;;;;;;;;60.67;44.00;;;;;1.04;73.43;99279.47;4977680;28;45483;-64
2024/01/17 02:22:52;;;;;;;;;59.33;43.33;;;;;1.16;73.55;99280.50;4976647;28;45556;-63
2024/01/17 02:25:18;;;;;;;;;59.00;41.00;;;;;1.17;73.14;99266.78;4977446;28;45467;-64
2024/01/17 02:27:43;;;;;;;;;51.67;40.33;;;;;1.21;74.01;99258.22;4976987;28;46072;-64
2024/01/17 02:30:09;;;;;;;;;55.67;42.33;;;;;1.19;73.95;99253.06;4977637;28;45498;-63
2024/01/17 02:32:36;;;;;;;;;54.67;40.00;;;;;1.25;74.17;99253.16;4977291;28;45364;-65
2024/01/17 02:35:02;;;;;;;;;56.33;43.00;;;;;1.24;74.47;99235.09;4975812;28;45469;-64
2024/01/17 02:37:27;;;;;;;;;45.00;37.33;;;;;1.31;74.04;99230.91;4977030;28;46713;-63
2024/01/17 02:39:53;;;;;;;;;60.33;42.33;;;;;1.37;73.89;99238.72;4976816;28;45427;-64
2024/01/17 02:42:18;;;;;;;;;45.33;37.67;;;;;1.36;74.63;99240.44;4974499;28;45453;-64
2024/01/17 02:44:44;;;;;;;;;56.33;41.67;;;;;1.33;74.65;99232.66;4976459;28;45419;-66
2024/01/17 02:47:09;;;;;;;;;58.67;44.00;;;;;1.43;74.85;99233.66;4977329;28;45960;-65
2024/01/17 02:49:35;;;;;;;;;50.33;39.67;;;;;1.41;74.53;99218.13;4977183;28;45503;-64
2024/01/17 02:52:00;;;;;;;;;59.00;44.00;;;;;1.40;74.86;99211.25;4976767;28;45466;-65
2024/01/17 02:54:26;;;;;;;;;59.00;42.00;;;;;1.35;75.41;99223.19;4976851;28;45286;-64
2024/01/17 02:56:52;;;;;;;;;52.67;40.00;;;;;1.26;75.16;99195.56;4976939;28;46340;-65
2024/01/17 02:59:18;;;;;;;;;51.67;42.00;;;;;1.39;74.70;99217.25;4975220;28;45711;-64
2024/01/17 03:01:46;;;;;;;;;56.00;41.67;;;;;1.38;75.28;99194.03;4977190;28;45453;-65
2024/01/17 03:04:11;;;;;;;;;55.00;40.00;;;;;1.46;74.94;99198.44;4976968;28;45399;-64
2024/01/17 03:06:37;;;;;;;;;56.00;43.33;;;;;1.50;75.08;99201.94;4976389;28;45494;-65
2024/01/17 03:09:03;;;;;;;;;58.67;43.00;;;;;1.37;76.03;99184.53;4978178;28;45763;-65
2024/01/17 03:11:29;;;;;;;;;55.67;43.33;;;;;1.40;75.57;99188.03;4979516;28;45595;-65
2024/01/17 03:13:55;;;;;;;;;55.67;44.33;;;;;1.37;76.16;99175.06;4980907;28;45312;-64
2024/01/17 03:16:21;;;;;;;;;57.00;44.67;;;;;1.29;76.51;99168.97;4978539;28;45536;-64
2024/01/17 03:18:46;;;;;;;;;57.00;42.00;;;;;1.32;77.48;99176.72;4981117;28;45475;-65
2024/01/17 03:21:13;;;;;;;;;49.67;39.00;;;;;1.33;77.09;99175.00;4981236;28;45377;-65
2024/01/17 03:23:39;;;;;;;;;58.00;44.00;;;;;1.20;77.58;99151.63;4980081;28;45343;-65
2024/01/17 03:26:05;;;;;;;;;53.67;40.33;;;;;1.18;78.41;99148.16;4979563;28;45344;-64
2024/01/17 03:28:30;;;;;;;;;61.00;41.00;;;;;1.25;78.26;99152.56;4962166;28;45474;-65
2024/01/17 03:30:56;;;;;;;;;58.33;44.33;;;;;1.20;77.66;99132.72;4980037;28;45506;-64
2024/01/17 03:33:21;;;;;;;;;38.67;34.67;;;;;1.21;78.27;99127.59;4980280;28;45490;-64
2024/01/17 03:35:47;;;;;;;;;59.00;43.00;;;;;1.27;78.14;99117.34;4979447;28;45737;-63
2024/01/17 03:38:12;;;;;;;;;53.00;40.67;;;;;1.34;78.80;99107.97;4980190;28;45387;-63
2024/01/17 03:40:38;;;;;;;;;57.00;40.33;;;;;1.41;78.42;99103.75;4979980;28;45463;-64
2024/01/17 03:43:03;;;;;;;;;53.33;43.67;;;;;1.36;78.75;99092.53;4978730;28;45383;-64
2024/01/17 03:45:29;;;;;;;;;55.00;41.00;;;;;1.51;79.01;99095.28;4978975;28;45866;-64
2024/01/17 03:47:54;;;;;;;;;52.33;39.33;;;;;1.53;77.86;99074.66;4978183;28;45363;-66
2024/01/17 03:50:20;;;;;;;;;55.33;43.00;;;;;1.42;78.25;99062.50;4979554;28;45561;-66
2024/01/17 03:52:45;;;;;;;;;59.00;44.67;;;;;1.58;79.19;99060.97;4979910;28;45540;-65
2024/01/17 03:55:11;;;;;;;;;54.67;42.00;;;;;1.65;78.72;99059.31;4977741;28;47869;-65
2024/01/17 03:57:36;;;;;;;;;52.67;41.00;;;;;1.64;78.19;99039.53;4979196;28;45332;-63
2024/01/17 04:00:06;;;;;;;;;55.00;44.00;;;;;1.73;77.87;99037.03;4979144;28;45434;-64
2024/01/17 04:02:31;;;;;;;;;53.67;42.00;;;;;1.74;78.14;99030.16;4979523;28;45542;-64
2024/01/17 04:04:57;;;;;;;;;57.67;40.00;;;;;1.70;78.76;99017.22;4979159;28;45372;-65
2024/01/17 04:07:24;;;;;;;;;54.33;43.33;;;;;1.76;78.10;99019.00;4979192;28;45553;-65
2024/01/17 04:09:49;;;;;;;;;53.33;43.33;;;;;1.63;78.76;98987.03;4994430;28;45424;-67
2024/01/17 04:12:15;;;;;;;;;53.33;41.33;;;;;1.69;79.08;98996.56;4979551;28;45339;-65
2024/01/17 04:14:41;;;;;;;;;55.00;41.33;;;;;1.73;78.42;98994.88;4977833;28;45682;-65
2024/01/17 04:17:10;;;;;;;;;54.00;40.33;;;;;1.72;78.93;98986.25;4979034;28;45289;-64
2024/01/17 04:19:35;;;;;;;;;53.00;41.00;;;;;1.70;78.92;98970.75;4979077;28;45273;-64
2024/01/17 04:22:01;;;;;;;;;49.33;39.67;;;;;1.65;78.37;98949.19;4978208;28;45329;-64
2024/01/17 04:24:26;;;;;;;;;57.00;42.67;;;;;1.72;78.55;98946.69;4978860;28;45428;-64
2024/01/17 04:26:58;;;;;;;;;54.33;40.33;;;;;1.78;79.07;98944.16;4980087;28;45386;-63
2024/01/17 04:29:24;;;;;;;;;54.00;41.33;;;;;1.71;79.21;98932.94;4980613;28;45467;-65
2024/01/17 04:31:51;;;;;;;;;53.67;41.00;;;;;1.81;79.07;98936.44;4980129;28;46649;-64
2024/01/17 04:34:16;;;;;;;;;54.00;41.67;;;;;1.78;79.55;98923.50;4979137;28;46110;-64
2024/01/17 04:36:42;;;;;;;;;51.33;38.00;;;;;1.83;79.16;98920.13;4977269;28;45509;-64
2024/01/17 04:39:08;;;;;;;;;54.00;44.00;;;;;1.70;79.29;98877.84;4979208;28;45376;-65
2024/01/17 04:41:34;;;;;;;;;49.00;42.00;;;;;1.85;79.94;98902.94;4978957;28;45352;-64
2024/01/17 04:44:00;;;;;;;;;55.67;40.00;;;;;1.88;79.92;98896.91;4978752;28;45531;-65
2024/01/17 04:46:27;;;;;;;;;50.33;40.00;;;;;1.82;79.30;98877.06;4978787;28;45451;-64
2024/01/17 04:48:52;;;;;;;;;54.33;42.00;;;;;1.91;79.53;98868.53;4979033;28;45419;-65
2024/01/17 04:51:22;;;;;;;;;50.67;41.33;;;;;1.97;79.17;98868.59;4980043;28;45491;-64
2024/01/17 04:53:48;;;;;;;;;45.67;37.33;;;;;1.91;78.99;98848.75;4978605;28;45259;-65
2024/01/17 04:56:15;;;;;;;;;52.67;41.33;;;;;1.91;79.57;98843.56;4978296;28;45415;-65
2024/01/17 04:58:43;;;;;;;;;50.33;42.33;;;;;1.91;79.75;98841.00;4979634;28;45243;-66
2024/01/17 05:01:09;;;;;;;;;53.33;37.67;;;;;1.95;79.73;98846.19;4979845;28;45460;-65
2024/01/17 05:03:36;;;;;;;;;47.00;38.67;;;;;1.91;80.63;98840.13;4978452;28;46366;-64
2024/01/17 05:06:02;;;;;;;;;53.00;39.00;;;;;1.87;80.52;98828.91;4978218;28;45334;-64
2024/01/17 05:08:28;;;;;;;;;50.33;40.00;;;;;1.90;80.76;98844.44;4977264;28;45712;-64
2024/01/17 05:10:55;;;;;;;;;52.67;40.33;;;;;1.93;80.30;98853.06;4978497;28;45291;-64
2024/01/17 05:13:20;;;;;;;;;51.67;35.33;;;;;1.83;80.70;98844.41;4978491;28;45564;-65
2024/01/17 05:15:46;;;;;;;;;49.00;38.67;;;;;1.74;81.13;98839.16;4979378;28;45531;-65
2024/01/17 05:18:12;;;;;;;;;46.25;37.75;;;;;1.78;81.26;98843.47;4979620;28;45321;-64
2024/01/17 05:20:38;;;;;;;;;41.00;35.00;;;;;1.79;80.79;98834.91;4978554;28;45535;-64
2024/01/17 05:23:04;;;;;;;;;49.00;36.33;;;;;1.82;81.35;98832.31;4977757;28;45616;-65
2024/01/17 05:25:30;;;;;;;;;53.00;38.67;;;;;1.84;80.69;98828.03;4977087;28;45312;-64
2024/01/17 05:27:55;;;;;;;;;50.00;37.33;;;;;1.87;81.14;98831.50;4976994;28;45373;-64
2024/01/17 05:30:23;;;;;;;;;54.67;40.00;;;;;1.93;81.32;98829.84;4961060;28;45333;-65
2024/01/17 05:32:49;;;;;;;;;50.00;38.67;;;;;1.99;80.55;98815.22;4978678;28;45516;-63
2024/01/17 05:35:15;;;;;;;;;52.33;40.00;;;;;2.02;81.07;98810.09;4979082;28;45462;-64
2024/01/17 05:37:45;;;;;;;;;44.25;36.50;;;;;2.00;81.69;98805.78;4979208;28;45505;-65
2024/01/17 05:40:11;;;;;;;;;61.00;41.33;;;;;2.03;81.09;98791.16;4977752;28;45516;-64
2024/01/17 05:42:37;;;;;;;;;48.33;38.67;;;;;2.04;81.12;98785.13;4977658;28;45490;-63
2024/01/17 05:45:04;;;;;;;;;47.67;36.00;;;;;2.07;80.70;98777.41;4976399;28;46053;-64
2024/01/17 05:47:34;;;;;;;;;53.25;39.00;;;;;2.09;80.90;98773.09;4976580;28;45603;-64
2024/01/17 05:50:01;;;;;;;;;48.25;36.50;;;;;2.03;81.14;98754.13;4978825;28;45381;-64
2024/01/17 05:52:27;;;;;;;;;48.33;36.00;;;;;1.95;81.11;98742.94;4977518;28;45549;-63
2024/01/17 05:54:52;;;;;;;;;51.00;39.00;;;;;2.01;81.63;98750.69;4976780;28;45762;-64
2024/01/17 05:57:18;;;;;;;;;49.00;35.75;;;;;1.99;81.85;98748.06;4977474;28;45349;-63
2024/01/17 05:59:43;;;;;;;;;54.33;39.33;;;;;2.01;81.75;98736.03;4978915;28;45588;-64
2024/01/17 06:02:09;;;;;;;;;50.75;39.00;;;;;2.02;82.40;98717.13;4978606;28;46670;-63
2024/01/17 06:04:35;;;;;;;;;49.00;36.00;;;;;2.02;81.97;98703.38;4977298;28;45545;-64
2024/01/17 06:07:01;;;;;;;;;51.33;39.00;;;;;2.03;82.41;98711.09;4977246;28;45482;-63
2024/01/17 06:09:26;;;;;;;;;51.00;37.50;;;;;2.04;82.44;98704.19;4977184;28;45448;-62
2024/01/17 06:11:52;;;;;;;;;45.75;35.00;;;;;2.06;83.23;98695.59;4976095;28;47899;-63
2024/01/17 06:14:17;;;;;;;;;53.50;39.00;;;;;2.12;82.76;98680.16;4978447;28;45452;-63
2024/01/17 06:16:44;;;;;;;;;52.00;39.33;;;;;2.17;82.05;98680.16;4976100;28;45549;-64
2024/01/17 06:19:10;;;;;;;;;37.33;34.67;;;;;2.24;81.55;98681.03;4978223;28;45337;-64
2024/01/17 06:21:35;;;;;;;;;53.33;41.33;;;;;2.26;82.15;98669.00;4978242;28;45369;-63
2024/01/17 06:24:01;;;;;;;;;48.33;37.67;;;;;2.26;82.99;98654.34;4968617;28;45468;-66
2024/01/17 06:26:27;;;;;;;;;49.50;38.00;;;;;2.26;83.04;98648.34;4975802;28;45555;-64
2024/01/17 06:28:52;;;;;;;;;42.25;35.75;;;;;2.22;83.22;98631.09;4977512;28;45431;-64
2024/01/17 06:31:25;;;;;;;;;48.50;36.00;;;;;2.30;82.52;98629.38;4977501;28;46167;-64
2024/01/17 06:33:51;;;;;;;;;44.75;35.25;;;;;2.30;82.51;98626.78;4970724;28;45714;-64
2024/01/17 06:36:17;;;;;;;;;42.50;32.50;;;;;2.26;82.66;98612.16;4969292;28;45432;-65
2024/01/17 06:38:43;;;;;;;;;43.50;32.75;;;;;2.28;83.16;98607.88;4976728;28;45443;-64
2024/01/17 06:41:09;;;;;;;;;48.25;37.00;;;;;2.34;83.17;98606.13;4977354;28;46341;-64
2024/01/17 06:43:34;;;;;;;;;41.50;35.00;;;;;2.23;82.69;98576.88;4977044;28;45434;-64
2024/01/17 06:46:00;;;;;;;;;37.50;32.25;;;;;2.41;82.57;98593.22;4977524;28;45457;-64
2024/01/17 06:48:25;;;;;;;;;38.00;32.75;;;;;2.42;83.07;98597.53;4977604;28;45312;-64
2024/01/17 06:50:51;;;;;;;;;37.50;33.50;;;;;2.30;83.27;98575.13;4976475;28;45692;-64
2024/01/17 06:53:17;;;;;;;;;43.50;33.50;;;;;2.35;82.46;98588.94;4976783;28;45371;-63
2024/01/17 06:55:43;;;;;;;;;38.50;31.75;;;;;2.35;83.97;98565.69;4975385;28;45413;-63
2024/01/17 06:58:10;;;;;;;;;43.00;34.00;;;;;2.37;82.65;98558.75;4975768;28;45633;-64
2024/01/17 07:00:36;;;;;;;;;41.50;33.25;;;;;2.37;83.16;98550.16;4976292;28;45619;-63
2024/01/17 07:03:01;;;;;;;;;34.75;28.50;;;;;2.35;83.79;98550.19;4959012;28;45499;-63
2024/01/17 07:05:27;;;;;;;;;40.25;32.25;;;;;2.42;83.48;98562.25;4977295;28;45416;-64
2024/01/17 07:07:53;;;;;;;;;35.75;30.00;;;;;2.36;83.59;98554.47;4975938;28;45368;-63
2024/01/17 07:10:19;;;;;;;;;35.25;31.50;;;;;2.33;84.24;98551.91;4974344;28;46044;-62
2024/01/17 07:12:44;;;;;;;;;31.50;30.00;;;;;2.39;84.86;98566.53;4974994;28;45351;-63
2024/01/17 07:15:10;;;;;;;;;41.75;28.00;;;;;2.43;84.49;98563.94;4974812;28;45354;-63
2024/01/17 07:17:37;;;;;;;;;31.25;27.25;;;;;2.52;83.39;98565.69;4976646;28;45312;-63
2024/01/17 07:20:04;;;;;;;;;34.00;31.75;;;;;2.55;83.85;98540.69;4976203;28;45573;-63
2024/01/17 07:22:30;;;;;;;;;41.25;35.00;;;;;2.62;82.81;98528.63;4976613;28;45599;-63
2024/01/17 07:24:56;;;;;;;;;38.25;31.00;;;;;2.43;83.13;98483.00;4976384;28;45455;-63
2024/01/17 07:27:21;;;;;;;;;36.00;27.00;;;;;2.71;83.21;98517.41;4976137;28;45345;-63
2024/01/17 07:29:47;;;;;;;;;44.75;35.00;;;;;2.73;83.50;98513.09;4977817;28;46143;-62
2024/01/17 07:32:13;;;;;;;;;38.75;32.75;;;;;2.75;83.83;98513.94;4977072;28;45439;-63
2024/01/17 07:34:38;;;;;;;;;41.75;33.00;;;;;2.66;83.14;98503.63;4976519;28;45482;-63
2024/01/17 07:37:04;;;;;;;;;34.75;29.50;;;;;2.70;83.76;98521.69;4977627;28;45293;-63
2024/01/17 07:39:29;;;;;;;;;35.50;27.25;;;;;2.70;83.84;98519.09;4977559;28;46072;-63
2024/01/17 07:41:56;;;;;;;;;41.00;29.75;;;;;2.76;83.27;98498.44;4976080;28;45463;-64
2024/01/17 07:44:26;;;;;;;;;43.00;32.25;;;;;2.73;83.23;98477.78;4976114;28;45516;-63
2024/01/17 07:46:53;;;;;;;;;33.75;29.50;;;;;2.79;83.47;98486.38;4976100;28;45399;-62
2024/01/17 07:49:19;;;;;;;;;36.00;31.50;;;;;2.70;83.97;98463.97;4976113;28;45434;-63
2024/01/17 07:51:45;;;;;;;;;37.75;32.25;;;;;2.80;83.73;98445.00;4976342;28;45351;-63
2024/01/17 07:54:11;;;;;;;;;34.25;32.75;;;;;2.73;84.06;98446.75;4977629;28;45525;-63
2024/01/17 07:56:36;;;;;;;;;33.50;30.25;;;;;2.69;84.06;98445.03;4979248;28;45721;-63
2024/01/17 07:59:02;;;;;;;;;32.50;29.50;;;;;2.71;83.94;98447.63;4977840;28;46603;-64
2024/01/17 08:01:29;;;;;;;;;39.75;29.75;;;;;2.62;83.91;98461.41;4979413;28;45407;-63
2024/01/17 08:03:54;;;;;;;;;36.00;30.50;;;;;2.59;84.53;98479.53;4978240;28;45616;-62
2024/01/17 08:06:20;;;;;;;;;31.00;28.50;;;;;2.53;85.11;98470.03;4979412;28;45536;-63
2024/01/17 08:08:46;;;;;;;;;34.00;30.50;;;;;2.67;85.12;98474.34;4977701;28;47584;-63
2024/01/17 08:11:12;;;;;;;;;30.75;25.25;;;;;2.69;84.77;98463.13;4979156;28;45478;-63
2024/01/17 08:13:37;;;;;;;;;34.75;29.25;;;;;2.78;85.01;98454.50;4979800;28;45999;-62
2024/01/17 08:16:03;;;;;;;;;34.00;30.50;;;;;2.72;85.74;98444.16;4978437;28;45474;-63
2024/01/17 08:18:29;;;;;;;;;27.50;24.25;;;;;2.67;85.21;98428.66;4979063;28;45394;-63
2024/01/17 08:20:54;;;;;;;;;31.00;24.25;;;;;2.64;85.34;98415.75;4978927;28;45418;-63
2024/01/17 08:23:20;;;;;;;;;28.75;26.25;;;;;2.79;84.90;98408.81;4978947;28;45414;-64
2024/01/17 08:25:45;;;;;;;;;33.50;26.50;;;;;2.72;84.97;98385.56;4979184;28;45376;-63
2024/01/17 08:28:11;;;;;;;;;34.25;26.50;;;;;2.82;84.14;98381.19;4977252;28;47711;-63
2024/01/17 08:30:36;;;;;;;;;33.00;27.75;;;;;2.84;84.64;98374.31;4978576;28;45499;-63
2024/01/17 08:33:02;;;;;;;;;27.00;22.25;;;;;2.91;84.89;98386.34;4978853;28;45377;-63
2024/01/17 08:35:28;;;;;;;;;25.75;24.75;;;;;2.91;84.46;98372.56;4977992;28;45314;-63
2024/01/17 08:37:53;;;;;;;;;33.00;28.75;;;;;2.91;84.20;98380.31;4977407;28;47039;-63
2024/01/17 08:40:19;;;;;;;;;30.50;23.50;;;;;2.88;85.00;98385.50;4977321;28;45538;-63
2024/01/17 08:42:45;;;;;;;;;31.00;25.75;;;;;2.84;84.66;98376.88;4977686;28;45535;-63
2024/01/17 08:45:10;;;;;;;;;29.50;26.00;;;;;2.73;85.92;98352.84;4978381;28;45527;-64
2024/01/17 08:47:36;;;;;;;;;23.75;22.50;;;;;2.80;86.55;98354.53;4978637;28;45470;-65
2024/01/17 08:50:03;;;;;;;;;31.75;27.00;;;;;2.82;86.20;98345.00;4977167;28;45709;-64
2024/01/17 08:52:28;;;;;;;;;29.25;27.50;;;;;2.71;85.21;98328.72;4978479;28;45458;-65
2024/01/17 08:55:00;;;;;;;;;30.25;26.25;;;;;2.73;86.20;98343.34;4978416;28;45425;-63
2024/01/17 08:57:26;;;;;;;;;29.75;24.25;;;;;2.69;86.46;98330.44;4978122;28;45568;-64
2024/01/17 08:59:52;;;;;;;;;36.50;26.75;;;;;2.81;86.14;98311.44;4978521;28;45283;-65
2024/01/17 09:02:17;;;;;;;;;27.50;26.00;;;;;2.79;85.82;98300.25;4978287;28;45357;-64
2024/01/17 09:04:43;;;;;;;;;27.75;24.50;;;;;2.85;86.36;98307.94;4964920;28;45476;-64
2024/01/17 09:07:08;;;;;;;;;30.50;26.00;;;;;2.91;86.01;98303.59;4977192;28;45415;-63
2024/01/17 09:09:34;;;;;;;;;29.50;22.25;;;;;2.91;86.65;98302.75;4978495;28;45344;-64
2024/01/17 09:11:59;;;;;;;;;23.50;20.00;;;;;2.96;86.18;98296.66;4980282;28;45413;-64
2024/01/17 09:14:25;;;;;;;;;31.50;24.00;;;;;3.00;85.91;98275.97;4978967;28;45241;-64
2024/01/17 09:16:52;;;;;;;;;26.00;24.00;;;;;3.06;86.62;98292.31;4978213;28;45480;-64
2024/01/17 09:19:20;;;;;;;;;26.00;23.50;;;;;3.05;86.21;98279.38;4976908;28;45590;-66
2024/01/17 09:21:46;;;;;;;;;21.75;20.75;;;;;3.04;86.13;98264.72;4976899;28;45392;-65
2024/01/17 09:24:12;;;;;;;;;19.75;19.00;;;;;3.16;86.60;98275.84;4978592;28;45492;-65
2024/01/17 09:26:38;;;;;;;;;40.00;31.25;;;;;3.18;87.21;98270.69;4978055;28;45546;-63
2024/01/17 09:29:03;;;;;;;;;31.75;25.75;;;;;3.22;86.51;98256.81;4979052;28;45553;-64
2024/01/17 09:31:29;;;;;;;;;24.25;21.50;;;;;3.10;86.26;98238.81;4978686;28;45438;-64
2024/01/17 09:33:54;;;;;;;;;31.25;28.75;;;;;3.26;87.50;98236.97;4978301;28;45407;-64
2024/01/17 09:36:20;;;;;;;;;32.50;24.50;;;;;3.29;86.01;98242.97;4976087;28;47876;-66
2024/01/17 09:38:46;;;;;;;;;21.00;18.75;;;;;3.43;86.46;98249.75;4978334;28;45370;-63
2024/01/17 09:41:11;;;;;;;;;79.33;60.33;;;;;3.37;86.76;98235.16;4978333;28;45442;-64
2024/01/17 09:43:37;;;;;;;;;28.50;27.50;;;;;3.34;86.42;98230.84;4978264;28;45564;-64
2024/01/17 09:46:04;;;;;;;;;21.25;17.00;;;;;3.46;86.47;98247.13;4976754;28;46996;-64
2024/01/17 09:48:30;;;;;;;;;18.25;17.25;;;;;3.52;86.90;98258.28;4977899;28;45375;-64
2024/01/17 09:50:57;;;;;;;;;20.50;15.00;;;;;3.55;86.49;98236.69;4977821;28;45519;-64
2024/01/17 09:53:32;;;;;;;;;21.50;20.50;;;;;3.56;86.01;98231.53;4976903;28;45622;-65
2024/01/17 09:56:00;;;;;;;;;20.50;17.75;;;;;3.68;85.70;98240.00;4977476;28;46056;-64
2024/01/17 09:58:29;;;;;;;;;18.75;15.75;;;;;3.67;86.04;98233.97;4968511;28;45495;-64
2024/01/17 10:00:56;;;;;;;;;16.25;14.00;;;;;3.69;85.98;98221.88;4977207;28;45489;-65
2024/01/17 10:03:24;;;;;;;;;23.75;22.00;;;;;3.74;85.82;98227.00;4976299;28;45680;-64
2024/01/17 10:05:51;;;;;;;;;26.00;21.75;;;;;3.75;85.84;98244.25;4976306;28;47519;-65
2024/01/17 10:08:18;;;;;;;;;26.50;22.50;;;;;3.80;85.67;98227.81;4979575;28;45400;-66
2024/01/17 10:10:46;;;;;;;;;23.50;20.00;;;;;3.80;86.25;98219.19;4978753;28;45237;-65
2024/01/17 10:13:12;;;;;;;;;24.25;19.50;;;;;3.81;85.74;98220.91;4978160;28;45501;-64
2024/01/17 10:15:47;;;;;;;;;26.75;25.25;;;;;3.88;86.17;98208.75;4977845;28;45550;-64
2024/01/17 10:18:13;;;;;;;;;28.25;23.50;;;;;3.81;86.17;98206.22;4977752;28;45483;-64
2024/01/17 10:20:39;;;;;;;;;22.50;20.25;;;;;3.86;86.00;98213.06;4978720;28;45336;-64
2024/01/17 10:23:07;;;;;;;;;24.50;16.75;;;;;3.87;85.57;98194.06;4978713;28;45533;-63
2024/01/17 10:25:42;;;;;;;;;24.75;22.00;;;;;3.81;86.35;98195.00;4958024;28;47166;-65
2024/01/17 10:28:09;;;;;;;;;25.00;22.25;;;;;3.86;86.12;98179.41;4974994;28;45230;-65
2024/01/17 10:30:36;;;;;;;;;32.00;30.25;;;;;3.77;86.31;98147.59;4977945;28;45365;-65
2024/01/17 10:33:03;;;;;;;;;34.25;30.25;;;;;3.72;87.58;98144.16;4977580;28;45623;-65
2024/01/17 10:35:30;;;;;;;;;24.75;24.00;;;;;3.85;86.91;98151.81;4976552;28;46367;-63
2024/01/17 10:37:56;;;;;;;;;24.25;23.25;;;;;3.71;86.25;98110.56;4972380;28;45483;-62
2024/01/17 10:40:22;;;;;;;;;27.75;24.00;;;;;3.93;86.24;98140.47;4973826;28;45568;-65
2024/01/17 10:43:03;;;;;;;;;26.50;22.75;;;;;3.85;87.17;98142.31;4974965;28;45491;-64
2024/01/17 10:45:34;;;;;;;;;28.00;25.00;;;;;3.85;87.06;98128.50;4965510;28;47320;-64
2024/01/17 10:48:00;;;;;;;;;27.25;22.25;;;;;3.85;87.27;98120.75;4976309;28;45441;-64
2024/01/17 10:50:25;;;;;;;;;29.25;26.25;;;;;3.90;87.08;98121.53;4972410;28;45635;-65
2024/01/17 10:52:58;;;;;;;;;26.75;24.25;;;;;3.85;87.97;98113.81;4974068;28;45903;-65
2024/01/17 10:55:27;;;;;;;;;25.75;21.50;;;;;3.91;87.50;98123.25;4976522;28;45378;-66
2024/01/17 10:57:59;;;;;;;;;24.50;21.25;;;;;3.91;87.60;98108.56;4978727;28;45466;-67
2024/01/17 11:00:31;;;;;;;;;35.00;29.00;;;;;3.99;86.82;98113.66;4977298;28;45279;-66
2024/01/17 11:02:59;;;;;;;;;48.25;37.25;;;;;4.07;87.37;98111.81;4978878;28;45321;-64
2024/01/17 11:05:30;;;;;;;;;43.25;33.00;;;;;4.06;86.60;98101.44;4975757;28;46799;-65
2024/01/17 11:07:57;;;;;;;;;37.50;32.00;;;;;4.19;86.28;98111.63;4976849;28;45604;-64
2024/01/17 11:10:24;;;;;;;;;27.25;27.25;;;;;4.21;87.10;98104.69;4976295;28;45435;-65
2024/01/17 11:12:52;;;;;;;;;30.00;28.00;;;;;4.22;87.71;98087.41;4976700;28;45361;-65
2024/01/17 11:15:19;;;;;;;;;32.75;28.00;;;;;4.25;87.99;98106.34;4975135;28;47359;-68
2024/01/17 11:17:46;;;;;;;;;30.00;25.75;;;;;4.29;87.49;98095.94;4976491;28;45396;-65
2024/01/17 11:20:13;;;;;;;;;31.25;26.00;;;;;4.37;87.58;98099.28;4976504;28;45461;-67